Time;durP1;ratioP1;P1;durP2;ratioP2;P2;SDS_P1;SDS_P2;PMS_P1;PMS_P2;Temp;Humidity;BMP_temperature;BMP_pressure;BME280_temperature;BME280_humidity;BME280_pressure;Samples;Min_cycle;Max_cycle;Signal;HPM_P1;HPM_P2
2022/03/15 00:01:15;;;;;;;16.85;7.82;;;;;;;3.82;100.00;99053.50;5089186;28;20143;-77
2022/03/15 00:03:41;;;;;;;19.50;8.13;;;;;;;3.70;100.00;99036.66;5089582;28;20090;-76
2022/03/15 00:06:08;;;;;;;15.50;8.48;;;;;;;3.72;100.00;99045.25;5089513;28;20519;-78
2022/03/15 00:08:35;;;;;;;15.20;8.45;;;;;;;3.58;100.00;99043.91;5092296;28;20051;-79
2022/03/15 00:11:05;;;;;;;17.55;8.50;;;;;;;3.46;100.00;99041.22;5092250;28;20052;-78
2022/03/15 00:13:38;;;;;;;17.58;8.48;;;;;;;3.44;100.00;99047.84;5091980;28;20055;-77
2022/03/15 00:16:10;;;;;;;20.05;8.68;;;;;;;3.42;100.00;99047.28;5092721;28;20051;-77
2022/03/15 00:18:37;;;;;;;19.65;8.32;;;;;;;3.28;100.00;99054.72;5091948;28;20052;-78
2022/03/15 00:21:10;;;;;;;18.40;8.68;;;;;;;3.18;100.00;99049.16;5092943;28;20044;-76
2022/03/15 00:23:37;;;;;;;22.35;9.88;;;;;;;3.10;100.00;99050.31;5082339;28;20458;-76
2022/03/15 00:26:04;;;;;;;23.35;9.48;;;;;;;3.12;100.00;99052.78;5093466;28;20129;-76
2022/03/15 00:28:32;;;;;;;23.60;9.73;;;;;;;3.09;100.00;99055.91;5090711;28;20044;-79
2022/03/15 00:30:59;;;;;;;26.80;9.88;;;;;;;3.07;100.00;99061.47;5092006;28;20089;-76
2022/03/15 00:33:26;;;;;;;20.80;9.88;;;;;;;3.10;100.00;99063.69;5097957;28;20084;-78
2022/03/15 00:35:53;;;;;;;22.20;10.38;;;;;;;3.05;100.00;99065.44;5098328;28;20044;-80
2022/03/15 00:38:21;;;;;;;27.65;10.48;;;;;;;2.96;100.00;99056.94;5096814;28;20652;-77
2022/03/15 00:40:48;;;;;;;25.42;10.40;;;;;;;2.89;100.00;99063.44;5096861;28;20052;-79
2022/03/15 00:43:15;;;;;;;23.15;11.02;;;;;;;2.86;100.00;99059.38;5090646;28;20091;-77
2022/03/15 00:45:42;;;;;;;20.83;9.68;;;;;;;2.77;100.00;99063.41;5090728;28;20083;-78
2022/03/15 00:48:09;;;;;;;29.27;10.52;;;;;;;2.68;100.00;99053.28;5090262;28;20048;-79
2022/03/15 00:50:40;;;;;;;21.70;9.75;;;;;;;2.70;100.00;99057.38;5091610;28;20068;-76
2022/03/15 00:53:09;;;;;;;22.85;10.50;;;;;;;2.53;100.00;99062.53;5091032;28;20052;-76
2022/03/15 00:55:35;;;;;;;17.95;9.65;;;;;;;2.60;100.00;99062.47;5091432;28;20087;-76
2022/03/15 00:58:02;;;;;;;26.17;10.07;;;;;;;2.43;100.00;99074.81;5090504;28;20078;-78
2022/03/15 01:00:31;;;;;;;21.60;9.57;;;;;;;2.46;100.00;99080.53;5090981;28;20418;-77
2022/03/15 01:02:59;;;;;;;19.83;10.02;;;;;;;2.35;100.00;99086.66;5092281;28;20471;-76
2022/03/15 01:05:25;;;;;;;21.63;9.70;;;;;;;2.32;100.00;99079.06;5091661;28;20071;-77
2022/03/15 01:07:52;;;;;;;23.77;10.40;;;;;;;2.22;100.00;99076.13;5090465;28;20044;-77
2022/03/15 01:10:19;;;;;;;22.52;10.15;;;;;;;2.14;100.00;99071.09;5092785;28;20096;-78
2022/03/15 01:12:45;;;;;;;23.08;10.00;;;;;;;2.15;100.00;99083.41;5100595;28;20592;-79
2022/03/15 01:15:12;;;;;;;20.33;9.60;;;;;;;2.03;100.00;99085.22;5094819;28;20048;-76
2022/03/15 01:17:39;;;;;;;21.23;9.73;;;;;;;2.00;100.00;99084.84;5090566;28;20044;-75
2022/03/15 01:20:08;;;;;;;23.70;9.68;;;;;;;2.00;100.00;99071.50;5091936;28;20052;-77
2022/03/15 01:22:34;;;;;;;24.63;9.80;;;;;;;2.07;100.00;99075.72;5076822;28;20045;-77
2022/03/15 01:25:01;;;;;;;22.83;10.07;;;;;;;2.07;100.00;99070.38;5088491;28;20083;-79
2022/03/15 01:27:27;;;;;;;19.35;9.40;;;;;;;2.04;100.00;99078.03;5091427;28;20044;-78
2022/03/15 01:29:54;;;;;;;22.38;9.32;;;;;;;1.77;100.00;99065.00;5093639;28;20051;-77
2022/03/15 01:32:21;;;;;;;22.35;10.07;;;;;;;1.66;100.00;99072.91;5092855;28;20052;-77
2022/03/15 01:34:47;;;;;;;24.48;10.93;;;;;;;1.63;100.00;99078.69;5092105;28;20051;-77
2022/03/15 01:37:14;;;;;;;25.55;10.90;;;;;;;1.52;100.00;99082.13;5090559;28;20401;-76
2022/03/15 01:39:41;;;;;;;22.83;10.55;;;;;;;1.53;100.00;99078.41;5089951;28;20142;-76
2022/03/15 01:42:08;;;;;;;26.90;11.07;;;;;;;1.45;100.00;99076.00;5090367;28;20195;-77
2022/03/15 01:44:35;;;;;;;24.58;11.95;;;;;;;1.37;100.00;99079.78;5098792;28;20086;-78
2022/03/15 01:47:01;;;;;;;26.40;11.02;;;;;;;1.42;100.00;99084.50;5110412;28;20075;-76
2022/03/15 01:49:28;;;;;;;26.60;11.95;;;;;;;1.39;100.00;99080.41;5108939;28;20051;-77
2022/03/15 01:51:55;;;;;;;27.33;12.15;;;;;;;1.37;100.00;99079.78;5091912;28;20044;-77
2022/03/15 01:54:22;;;;;;;30.25;13.45;;;;;;;1.21;100.00;99075.84;5091074;28;20131;-76
2022/03/15 01:56:49;;;;;;;28.70;12.05;;;;;;;1.22;100.00;99066.00;5090782;28;20133;-77
2022/03/15 01:59:17;;;;;;;29.27;11.95;;;;;;;1.22;100.00;99072.16;5090680;28;20420;-75
2022/03/15 02:01:43;;;;;;;23.95;12.15;;;;;;;1.24;100.00;99079.91;5090336;28;20105;-78
2022/03/15 02:04:11;;;;;;;24.65;11.95;;;;;;;1.18;100.00;99080.81;5090995;28;20120;-76
2022/03/15 02:06:39;;;;;;;28.15;11.30;;;;;;;1.07;100.00;99085.00;5090419;28;20055;-75
2022/03/15 02:09:10;;;;;;;26.73;11.85;;;;;;;1.10;100.00;99089.09;5088422;28;20075;-78
2022/03/15 02:11:36;;;;;;;23.27;11.10;;;;;;;1.20;100.00;99090.22;5089035;28;20081;-77
2022/03/15 02:14:04;;;;;;;22.98;11.05;;;;;;;1.19;100.00;99080.56;5090088;28;20553;-76
2022/03/15 02:16:32;;;;;;;22.23;10.68;;;;;;;1.25;100.00;99095.72;5089426;28;20052;-77
2022/03/15 02:18:59;;;;;;;29.20;11.60;;;;;;;1.03;100.00;99075.78;5090300;28;20063;-76
2022/03/15 02:21:28;;;;;;;21.40;10.82;;;;;;;0.92;100.00;99079.19;5089477;28;20571;-76
2022/03/15 02:23:55;;;;;;;24.67;11.63;;;;;;;0.98;100.00;99091.63;5081252;28;20044;-76
2022/03/15 02:26:22;;;;;;;23.63;11.13;;;;;;;0.92;100.00;99075.69;5089506;28;20052;-77
2022/03/15 02:28:48;;;;;;;23.20;11.07;;;;;;;0.86;100.00;99073.88;5087919;28;20082;-80
2022/03/15 02:31:15;;;;;;;21.58;11.10;;;;;;;0.86;100.00;99084.56;5089420;28;20109;-76
2022/03/15 02:33:42;;;;;;;25.20;11.45;;;;;;;0.99;100.00;99077.28;5090264;28;20052;-78
2022/03/15 02:36:08;;;;;;;25.73;12.18;;;;;;;1.05;100.00;99073.75;5090070;28;20051;-77
2022/03/15 02:38:35;;;;;;;30.80;11.60;;;;;;;1.02;100.00;99065.34;5088733;28;20456;-77
2022/03/15 02:41:02;;;;;;;29.33;11.98;;;;;;;0.78;100.00;99044.84;5089470;28;20063;-77
2022/03/15 02:43:29;;;;;;;28.08;12.77;;;;;;;0.75;100.00;99058.63;5088710;28;20080;-76
2022/03/15 02:45:56;;;;;;;24.10;12.35;;;;;;;0.77;100.00;99077.88;5071154;28;20101;-78
2022/03/15 02:48:22;;;;;;;27.40;13.57;;;;;;;0.75;100.00;99074.63;5089233;28;20102;-77
2022/03/15 02:50:49;;;;;;;29.58;12.25;;;;;;;0.80;100.00;99069.44;5089451;28;20087;-76
2022/03/15 02:53:16;;;;;;;37.38;14.55;;;;;;;0.70;100.00;99063.78;5088628;28;20044;-78
2022/03/15 02:55:45;;;;;;;33.83;13.98;;;;;;;0.71;100.00;99079.53;5088887;28;20073;-77
2022/03/15 02:58:11;;;;;;;26.63;13.13;;;;;;;0.84;100.00;99076.78;5087977;28;20054;-76
2022/03/15 03:00:38;;;;;;;25.17;12.07;;;;;;;0.92;100.00;99083.69;5089052;28;20052;-77
2022/03/15 03:03:05;;;;;;;25.58;12.55;;;;;;;0.95;100.00;99073.44;5089657;28;20048;-78
2022/03/15 03:05:32;;;;;;;27.13;12.85;;;;;;;0.93;100.00;99070.13;5089346;28;20085;-79
2022/03/15 03:08:00;;;;;;;34.13;12.18;;;;;;;0.99;100.00;99076.44;5087727;28;20048;-77
2022/03/15 03:10:26;;;;;;;26.27;12.98;;;;;;;1.09;100.00;99074.09;5089132;28;20088;-78
2022/03/15 03:12:54;;;;;;;26.75;12.40;;;;;;;1.06;100.00;99078.03;5088855;28;20044;-77
2022/03/15 03:15:20;;;;;;;25.42;12.20;;;;;;;1.15;100.00;99078.56;5088505;28;20098;-79
2022/03/15 03:17:47;;;;;;;29.05;12.13;;;;;;;1.17;100.00;99082.66;5088831;28;20105;-76
2022/03/15 03:20:19;;;;;;;27.08;12.93;;;;;;;1.10;100.00;99083.75;5088738;28;20083;-76
2022/03/15 03:22:46;;;;;;;34.97;12.65;;;;;;;1.08;100.00;99073.31;5072043;28;20049;-76
2022/03/15 03:25:13;;;;;;;27.75;12.10;;;;;;;1.09;100.00;99074.09;5087052;28;20040;-77
2022/03/15 03:27:40;;;;;;;26.10;11.82;;;;;;;1.11;100.00;99072.84;5088984;28;20119;-74
2022/03/15 03:30:07;;;;;;;27.00;10.98;;;;;;;1.09;100.00;99082.94;5089633;28;20048;-76
2022/03/15 03:32:34;;;;;;;26.45;11.80;;;;;;;1.07;100.00;99062.84;5089811;28;20047;-76
2022/03/15 03:35:04;;;;;;;24.98;11.57;;;;;;;1.13;100.00;99075.31;5089260;28;20044;-78
2022/03/15 03:37:32;;;;;;;29.80;11.20;;;;;;;1.13;100.00;99067.31;5088361;28;20078;-77
2022/03/15 03:39:59;;;;;;;17.85;9.30;;;;;;;0.97;100.00;99071.34;5092036;28;20736;-77
2022/03/15 03:42:26;;;;;;;26.98;10.88;;;;;;;0.99;100.00;99071.13;5093303;28;20072;-76
2022/03/15 03:44:52;;;;;;;20.73;9.60;;;;;;;0.98;100.00;99080.16;5083368;28;20048;-76
2022/03/15 03:47:19;;;;;;;23.38;9.77;;;;;;;0.80;100.00;99062.25;5082147;28;20157;-76
2022/03/15 03:49:46;;;;;;;26.48;10.27;;;;;;;0.83;100.00;99068.97;5085328;28;20098;-78
2022/03/15 03:52:13;;;;;;;28.10;10.32;;;;;;;0.80;100.00;99062.25;5084877;28;20059;-79
2022/03/15 03:54:39;;;;;;;23.83;10.73;;;;;;;0.80;100.00;99048.91;5080313;28;20056;-74
2022/03/15 03:57:06;;;;;;;20.98;10.27;;;;;;;0.76;100.00;99055.72;5081613;28;20622;-79
2022/03/15 03:59:32;;;;;;;23.80;10.60;;;;;;;0.89;100.00;99052.97;5090070;28;20063;-77
2022/03/15 04:01:59;;;;;;;19.58;9.60;;;;;;;0.89;100.00;99063.63;5091852;28;20109;-77
2022/03/15 04:04:26;;;;;;;22.73;10.10;;;;;;;0.86;100.00;99057.91;5092316;28;20500;-76
2022/03/15 04:06:54;;;;;;;21.92;9.95;;;;;;;0.62;100.00;99065.66;5080005;28;20075;-76
2022/03/15 04:09:20;;;;;;;20.17;10.07;;;;;;;0.72;100.00;99061.72;5078656;28;20070;-78
2022/03/15 04:11:48;;;;;;;22.00;9.90;;;;;;;0.72;100.00;99065.19;5082032;28;20127;-77
2022/03/15 04:14:15;;;;;;;23.33;10.30;;;;;;;0.79;100.00;99068.63;5081211;28;20697;-77
2022/03/15 04:16:42;;;;;;;21.85;9.60;;;;;;;0.80;100.00;99067.56;5081229;28;20051;-76
2022/03/15 04:19:14;;;;;;;21.60;9.52;;;;;;;0.86;100.00;99057.91;5090714;28;20054;-77
2022/03/15 04:21:40;;;;;;;20.10;10.00;;;;;;;0.89;100.00;99060.97;5090952;28;20047;-77
2022/03/15 04:24:07;;;;;;;23.05;10.35;;;;;;;0.88;100.00;99061.97;5083220;28;20071;-78
2022/03/15 04:26:33;;;;;;;23.38;10.98;;;;;;;0.70;100.00;99063.78;5082515;28;20602;-76
2022/03/15 04:29:00;;;;;;;24.23;11.00;;;;;;;0.72;100.00;99054.53;5085291;28;20036;-76
2022/03/15 04:31:26;;;;;;;20.90;9.38;;;;;;;0.79;100.00;99047.31;5083068;28;20078;-76
2022/03/15 04:33:53;;;;;;;20.15;9.23;;;;;;;0.86;100.00;99049.91;5093120;28;20051;-78
2022/03/15 04:36:20;;;;;;;21.45;9.38;;;;;;;0.83;100.00;99035.16;5093258;28;20078;-76
2022/03/15 04:38:47;;;;;;;21.40;9.93;;;;;;;0.83;100.00;99047.66;5091828;28;20079;-78
2022/03/15 04:41:13;;;;;;;22.70;9.82;;;;;;;0.78;100.00;99044.84;5092156;28;20178;-76
2022/03/15 04:43:40;;;;;;;22.10;10.05;;;;;;;0.77;100.00;99040.56;5088376;28;20098;-76
2022/03/15 04:46:07;;;;;;;18.42;9.68;;;;;;;0.76;100.00;99036.25;5085513;28;20044;-79
2022/03/15 04:48:34;;;;;;;21.50;8.80;;;;;;;0.75;100.00;99032.75;5092289;28;20071;-77
2022/03/15 04:51:00;;;;;;;20.75;9.13;;;;;;;0.79;100.00;99036.63;5087278;28;20099;-76
2022/03/15 04:53:27;;;;;;;19.30;9.93;;;;;;;0.89;100.00;99039.63;5092042;28;20059;-77
2022/03/15 04:55:53;;;;;;;23.88;10.25;;;;;;;1.03;100.00;99024.34;5091784;28;20630;-76
2022/03/15 04:58:20;;;;;;;27.27;10.70;;;;;;;1.09;100.00;99032.25;5090632;28;20040;-76
2022/03/15 05:00:47;;;;;;;25.60;11.10;;;;;;;1.18;100.00;99036.28;5088877;28;20097;-77
2022/03/15 05:03:16;;;;;;;33.95;12.05;;;;;;;1.23;100.00;99031.09;5075747;28;20584;-78
2022/03/15 05:05:44;;;;;;;23.67;11.38;;;;;;;1.39;100.00;99039.56;5082561;28;20045;-77
2022/03/15 05:08:11;;;;;;;26.65;11.43;;;;;;;1.43;100.00;99043.41;5068036;28;20076;-76
2022/03/15 05:13:25;;;;;;;27.30;11.82;;;;;;;1.65;100.00;99039.28;5069266;28;20095;-78
2022/03/15 05:15:51;;;;;;;28.75;12.43;;;;;;;1.71;100.00;99036.53;5069719;28;20098;-77
2022/03/15 05:18:18;;;;;;;31.05;12.55;;;;;;;1.76;100.00;99035.84;5078424;28;20044;-77
2022/03/15 05:20:44;;;;;;;28.85;13.00;;;;;;;1.73;100.00;99029.09;5086850;28;20114;-76
2022/03/15 05:23:11;;;;;;;28.17;12.75;;;;;;;1.75;100.00;99029.72;5101055;28;20052;-78
2022/03/15 05:25:37;;;;;;;26.83;12.10;;;;;;;1.83;100.00;99040.06;5099976;28;20397;-78
2022/03/15 05:28:08;;;;;;;31.33;12.13;;;;;;;1.90;100.00;99042.66;5092054;28;20105;-79
2022/03/15 05:30:37;;;;;;;26.45;11.95;;;;;;;1.95;100.00;99036.63;5092837;28;20048;-78
2022/03/15 05:33:04;;;;;;;26.58;11.52;;;;;;;2.04;100.00;99035.31;5098207;28;20047;-76
2022/03/15 05:35:30;;;;;;;31.23;11.95;;;;;;;2.02;100.00;99030.16;5092600;28;20097;-78
2022/03/15 05:37:57;;;;;;;23.98;11.65;;;;;;;2.01;100.00;99028.56;5089072;28;20496;-77
2022/03/15 05:40:25;;;;;;;26.75;11.88;;;;;;;2.05;100.00;99034.25;5091010;28;20507;-77
2022/03/15 05:42:51;;;;;;;27.00;12.55;;;;;;;2.13;100.00;99026.75;5091285;28;20048;-76
2022/03/15 05:45:18;;;;;;;25.75;12.18;;;;;;;2.12;100.00;99025.09;5090241;28;20546;-75
2022/03/15 05:47:45;;;;;;;26.92;12.70;;;;;;;2.14;100.00;99039.03;5091759;28;20048;-78
2022/03/15 05:50:11;;;;;;;27.80;12.15;;;;;;;2.16;100.00;99026.28;5093846;28;20052;-78
2022/03/15 05:52:38;;;;;;;24.15;11.10;;;;;;;2.17;100.00;99017.22;5092873;28;20076;-77
2022/03/15 05:55:05;;;;;;;25.85;11.45;;;;;;;2.27;100.00;99027.38;5101408;28;20075;-78
2022/03/15 05:57:31;;;;;;;25.17;11.02;;;;;;;2.34;100.00;99018.22;5091528;28;20291;-80
2022/03/15 05:59:58;;;;;;;24.33;11.40;;;;;;;2.35;100.00;99017.16;5094086;28;20074;-78
2022/03/15 06:02:24;;;;;;;25.58;11.50;;;;;;;2.44;100.00;99015.00;5086068;28;20062;-77
2022/03/15 06:04:51;;;;;;;24.48;11.85;;;;;;;2.50;100.00;99012.22;5085847;28;20165;-76
2022/03/15 06:07:18;;;;;;;25.88;11.57;;;;;;;2.53;100.00;99012.81;5077152;28;20088;-78
2022/03/15 06:09:44;;;;;;;22.30;10.82;;;;;;;2.43;100.00;99000.81;5075077;28;20045;-78
2022/03/15 06:12:11;;;;;;;25.60;11.65;;;;;;;2.56;100.00;99009.66;5074462;28;20048;-77
2022/03/15 06:14:37;;;;;;;22.48;11.55;;;;;;;2.71;100.00;99010.06;5071820;28;20099;-77
2022/03/15 06:17:04;;;;;;;25.17;11.70;;;;;;;2.78;100.00;99003.56;5076101;28;20053;-78
2022/03/15 06:19:31;;;;;;;29.10;11.07;;;;;;;2.74;100.00;98991.69;5077602;28;20078;-77
2022/03/15 06:21:58;;;;;;;25.65;11.68;;;;;;;2.91;100.00;98999.84;5092303;28;20048;-77
2022/03/15 06:24:26;;;;;;;30.52;11.07;;;;;;;2.95;100.00;98999.13;5099798;28;20052;-79
2022/03/15 06:26:53;;;;;;;25.30;11.23;;;;;;;3.08;100.00;98990.88;5102423;28;20599;-77
2022/03/15 06:29:20;;;;;;;20.25;10.48;;;;;;;3.16;100.00;98995.06;5091627;28;20044;-77
2022/03/15 06:31:46;;;;;;;24.77;10.88;;;;;;;3.17;100.00;98991.34;5090317;28;20101;-78
2022/03/15 06:34:33;;;;;;;21.35;9.98;;;;;;;3.25;100.00;98988.31;5091218;28;20404;-78
2022/03/15 06:37:00;;;;;;;21.48;10.80;;;;;;;3.33;100.00;99000.53;5091301;28;20052;-78
2022/03/15 06:39:26;;;;;;;25.33;9.82;;;;;;;3.43;100.00;98998.06;5090530;28;20480;-76
2022/03/15 06:41:54;;;;;;;21.83;10.27;;;;;;;3.42;100.00;98991.91;5089828;28;20500;-79
2022/03/15 06:44:20;;;;;;;23.98;9.88;;;;;;;3.49;100.00;98995.25;5089090;28;20052;-78
2022/03/15 06:46:47;;;;;;;22.17;10.70;;;;;;;3.58;100.00;98999.22;5090546;28;20097;-75
2022/03/15 06:49:13;;;;;;;20.88;9.63;;;;;;;3.65;100.00;98994.53;5089299;28;20511;-77
2022/03/15 06:51:40;;;;;;;18.63;8.80;;;;;;;3.69;100.00;99000.22;5089894;28;20055;-78
2022/03/15 06:54:06;;;;;;;23.70;9.90;;;;;;;3.86;100.00;98994.91;5089268;28;20097;-79
2022/03/15 06:56:34;;;;;;;21.25;9.73;;;;;;;3.89;100.00;98995.28;5089318;28;20079;-76
2022/03/15 06:59:01;;;;;;;20.17;9.15;;;;;;;3.79;100.00;98995.06;5088837;28;20109;-78
2022/03/15 07:01:28;;;;;;;21.17;8.50;;;;;;;3.98;100.00;99004.53;5085292;28;20500;-78
2022/03/15 07:03:54;;;;;;;22.73;9.73;;;;;;;4.17;100.00;98992.59;5077046;28;20047;-78
2022/03/15 07:06:21;;;;;;;22.65;9.52;;;;;;;4.11;100.00;98985.50;5088627;28;20416;-78
2022/03/15 07:08:48;;;;;;;23.42;9.35;;;;;;;4.07;100.00;98991.59;5087788;28;20094;-76
2022/03/15 07:11:14;;;;;;;22.83;9.10;;;;;;;4.17;100.00;98989.09;5089341;28;20075;-76
2022/03/15 07:13:41;;;;;;;19.45;8.70;;;;;;;4.46;100.00;98998.75;5088392;28;20603;-76
2022/03/15 07:16:08;;;;;;;20.33;8.98;;;;;;;4.09;100.00;98992.97;5088301;28;20079;-79
2022/03/15 07:18:34;;;;;;;18.17;8.55;;;;;;;4.34;100.00;98982.69;5088819;28;20055;-77
2022/03/15 07:21:01;;;;;;;25.63;9.60;;;;;;;4.64;100.00;98982.44;5088643;28;20052;-78
2022/03/15 07:23:27;;;;;;;16.58;8.77;;;;;;;4.68;100.00;98983.56;5068037;28;20049;-77
2022/03/15 07:25:55;;;;;;;19.45;8.85;;;;;;;4.95;100.00;98975.66;5069605;28;20118;-78
2022/03/15 07:28:22;;;;;;;17.77;8.98;;;;;;;5.31;100.00;98975.13;5067605;28;20106;-79
2022/03/15 07:30:48;;;;;;;15.65;7.90;;;;;;;5.22;100.00;98971.22;5071262;28;20274;-77
2022/03/15 07:33:15;;;;;;;18.25;8.32;;;;;;;5.29;100.00;98965.69;5069547;28;20505;-77
2022/03/15 07:35:41;;;;;;;14.48;8.13;;;;;;;5.27;100.00;98975.84;5069080;28;20048;-76
2022/03/15 07:38:08;;;;;;;18.20;8.15;;;;;;;5.38;100.00;98961.50;5067540;28;20097;-77
2022/03/15 07:40:36;;;;;;;13.80;7.32;;;;;;;5.59;100.00;98968.75;5067695;28;20051;-76
2022/03/15 07:43:03;;;;;;;15.02;7.05;;;;;;;5.46;100.00;98956.50;5067100;28;20551;-77
2022/03/15 07:45:30;;;;;;;13.25;6.40;;;;;;;5.65;100.00;98951.66;5067488;28;20052;-79
2022/03/15 07:48:07;;;;;;;11.65;6.68;;;;;;;5.78;100.00;98955.81;5070507;28;20048;-78
2022/03/15 07:50:34;;;;;;;12.10;5.80;;;;;;;5.95;100.00;98960.06;5072124;28;20056;-77
2022/03/15 07:53:01;;;;;;;16.50;6.53;;;;;;;6.02;100.00;98959.88;5069816;28;20094;-76
2022/03/15 07:55:28;;;;;;;12.48;5.78;;;;;;;6.17;100.00;98958.16;5072039;28;20101;-78
2022/03/15 07:57:55;;;;;;;13.20;5.40;;;;;;;6.42;100.00;98949.53;5069393;28;20095;-78
2022/03/15 08:00:27;;;;;;;13.73;5.90;;;;;;;6.59;100.00;98954.75;5072690;28;20044;-78
2022/03/15 08:02:53;;;;;;;13.63;5.70;;;;;;;6.26;100.00;98962.03;5080341;28;20135;-77
2022/03/15 08:05:22;;;;;;;13.95;5.88;;;;;;;6.78;100.00;98964.91;5069230;28;20530;-78
2022/03/15 08:07:49;;;;;;;12.75;5.80;;;;;;;6.80;100.00;98956.56;5067253;28;20527;-78
2022/03/15 08:10:16;;;;;;;11.32;5.45;;;;;;;7.08;100.00;98964.28;5067143;28;20136;-77
2022/03/15 08:12:42;;;;;;;9.73;5.40;;;;;;;7.29;100.00;98939.09;5067685;28;20060;-77
2022/03/15 08:15:10;;;;;;;10.27;4.97;;;;;;;7.46;100.00;98933.50;5067297;28;20067;-78
2022/03/15 08:17:45;;;;;;;14.07;5.47;;;;;;;7.54;100.00;98941.91;5070486;28;20474;-78
2022/03/15 08:20:27;;;;;;;7.82;4.80;;;;;;;7.64;100.00;98946.53;5072036;28;20152;-77
2022/03/15 08:22:55;;;;;;;9.02;4.53;;;;;;;7.75;100.00;98934.72;5088115;28;20055;-77
2022/03/15 08:25:22;;;;;;;8.88;4.38;;;;;;;7.96;100.00;98925.63;5091600;28;20083;-76
2022/03/15 08:27:51;;;;;;;8.90;4.45;;;;;;;8.33;100.00;98919.22;5092922;28;20098;-77
2022/03/15 08:30:20;;;;;;;8.38;5.13;;;;;;;8.51;100.00;98933.00;5095171;28;20083;-77
2022/03/15 08:32:46;;;;;;;12.20;6.20;;;;;;;8.44;100.00;98926.25;5093749;28;20059;-77
2022/03/15 08:35:13;;;;;;;12.55;5.13;;;;;;;8.27;100.00;98931.09;5091599;28;20052;-77
2022/03/15 08:37:42;;;;;;;14.13;5.15;;;;;;;8.43;100.00;98935.44;5090444;28;20052;-76
2022/03/15 08:40:11;;;;;;;13.25;5.43;;;;;;;8.49;100.00;98927.06;5092212;28;20047;-78
2022/03/15 08:42:37;;;;;;;10.52;4.85;;;;;;;8.96;100.00;98917.84;5092301;28;20135;-78
2022/03/15 08:45:05;;;;;;;11.65;6.63;;;;;;;8.97;100.00;98919.47;5093427;28;20442;-78
2022/03/15 08:47:33;;;;;;;17.20;7.15;;;;;;;9.09;100.00;98914.56;5104056;28;20072;-76
2022/03/15 08:49:59;;;;;;;16.58;6.47;;;;;;;9.30;100.00;98914.25;5105062;28;20044;-78
2022/03/15 08:52:26;;;;;;;13.50;5.43;;;;;;;8.98;100.00;98904.91;5103386;28;20101;-78
2022/03/15 08:54:52;;;;;;;12.45;5.32;;;;;;;9.42;100.00;98888.81;5093469;28;20090;-79
2022/03/15 08:57:19;;;;;;;11.02;4.90;;;;;;;9.20;100.00;98902.66;5091754;28;20074;-79
2022/03/15 08:59:46;;;;;;;11.57;5.53;;;;;;;9.40;100.00;98911.53;5090534;28;20098;-79
2022/03/15 09:02:13;;;;;;;14.32;5.93;;;;;;;9.66;100.00;98908.72;5089879;28;20044;-79
2022/03/15 09:04:40;;;;;;;18.13;8.57;;;;;;;10.07;100.00;98901.97;5071274;28;20056;-78
2022/03/15 09:07:06;;;;;;;13.80;7.18;;;;;;;10.20;100.00;98900.56;5070304;28;20056;-76
2022/03/15 09:09:33;;;;;;;11.45;5.07;;;;;;;10.25;100.00;98895.94;5070446;28;20109;-78
2022/03/15 09:11:59;;;;;;;10.57;5.00;;;;;;;10.43;100.00;98878.22;5070917;28;20087;-79
2022/03/15 09:14:26;;;;;;;10.32;5.10;;;;;;;10.53;100.00;98875.41;5070896;28;20056;-76
2022/03/15 09:16:52;;;;;;;11.65;5.15;;;;;;;10.99;100.00;98857.66;5070862;28;20103;-77
2022/03/15 09:19:19;;;;;;;10.55;4.60;;;;;;;10.82;100.00;98846.44;5070526;28;20049;-78
2022/03/15 09:21:46;;;;;;;11.93;4.70;;;;;;;10.71;100.00;98844.91;5077327;28;20848;-76
2022/03/15 09:24:13;;;;;;;15.45;4.38;;;;;;;10.78;100.00;98858.94;5091340;28;20067;-77
2022/03/15 09:26:42;;;;;;;9.90;4.32;;;;;;;10.89;100.00;98875.91;5090448;28;20052;-78
2022/03/15 09:29:12;;;;;;;8.20;3.72;;;;;;;11.20;100.00;98867.16;5090521;28;20044;-78
2022/03/15 09:31:39;;;;;;;8.73;3.88;;;;;;;11.50;100.00;98866.00;5090833;28;20098;-79
2022/03/15 09:34:06;;;;;;;10.25;4.03;;;;;;;11.67;100.00;98865.50;5091708;28;20048;-76
2022/03/15 09:36:34;;;;;;;7.50;3.67;;;;;;;11.84;100.00;98863.94;5090887;28;20109;-77
2022/03/15 09:39:01;;;;;;;8.63;4.10;;;;;;;11.84;100.00;98853.09;5090309;28;20094;-79
2022/03/15 09:41:27;;;;;;;7.55;3.35;;;;;;;11.75;100.00;98851.31;5091042;28;20217;-78
2022/03/15 09:43:55;;;;;;;9.63;3.30;;;;;;;12.08;100.00;98847.56;5090527;28;20134;-77
2022/03/15 09:46:22;;;;;;;7.75;3.17;;;;;;;12.23;100.00;98851.97;5090065;28;20105;-76
2022/03/15 09:49:10;;;;;;;8.02;3.28;;;;;;;12.04;94.79;98843.03;5090515;28;20522;-77
2022/03/15 09:51:37;;;;;;;8.25;3.05;;;;;;;12.14;92.85;98843.69;5090380;28;20052;-77
2022/03/15 09:54:06;;;;;;;6.60;3.38;;;;;;;11.99;94.55;98824.09;5090972;28;20074;-76
2022/03/15 09:56:38;;;;;;;6.35;3.20;;;;;;;12.40;87.53;98820.44;5089861;28;20052;-77
2022/03/15 09:59:11;;;;;;;8.80;3.50;;;;;;;12.57;87.59;98819.09;5089754;28;20052;-77
2022/03/15 10:01:39;;;;;;;8.88;3.20;;;;;;;12.92;84.59;98813.00;5082855;28;20055;-77
2022/03/15 10:04:05;;;;;;;10.65;3.25;;;;;;;12.38;84.84;98822.66;5082761;28;20462;-77
2022/03/15 10:06:32;;;;;;;7.03;3.30;;;;;;;12.68;81.99;98820.50;5089022;28;20427;-76
2022/03/15 10:08:59;;;;;;;8.15;3.15;;;;;;;12.59;80.84;98811.44;5090656;28;20101;-78
2022/03/15 10:11:25;;;;;;;6.55;3.17;;;;;;;12.99;85.46;98807.94;5090350;28;20156;-78
2022/03/15 10:13:52;;;;;;;7.25;3.10;;;;;;;13.09;81.16;98810.50;5092245;28;20117;-77
2022/03/15 10:16:22;;;;;;;8.32;2.97;;;;;;;13.15;80.19;98798.44;5096427;28;20095;-77
2022/03/15 10:18:57;;;;;;;9.10;2.90;;;;;;;13.45;76.24;98797.78;5092539;28;20059;-78
2022/03/15 10:21:37;;;;;;;6.30;3.00;;;;;;;13.71;73.37;98784.41;5087302;28;20079;-77
2022/03/15 10:24:06;;;;;;;9.30;3.05;;;;;;;13.24;72.63;98795.81;5070278;28;20543;-77
2022/03/15 10:26:37;;;;;;;8.98;3.10;;;;;;;13.15;76.72;98784.84;5069651;28;20504;-78
2022/03/15 10:29:04;;;;;;;7.70;3.08;;;;;;;13.43;75.84;98788.31;5068913;28;20045;-78
2022/03/15 10:31:31;;;;;;;8.02;3.22;;;;;;;13.97;72.16;98779.19;5069939;28;20048;-77
2022/03/15 10:34:01;;;;;;;6.22;3.20;;;;;;;13.99;70.27;98779.72;5070330;28;20493;-76
2022/03/15 10:36:37;;;;;;;6.55;3.42;;;;;;;14.37;70.58;98780.16;5069495;28;20052;-75
2022/03/15 10:39:04;;;;;;;8.15;3.22;;;;;;;14.34;66.68;98766.03;5069051;28;20527;-76
2022/03/15 10:41:41;;;;;;;8.68;3.50;;;;;;;14.12;68.03;98763.28;5069469;28;20505;-77
2022/03/15 10:44:21;;;;;;;11.57;3.30;;;;;;;14.62;64.34;98761.22;5069741;28;20436;-77
2022/03/15 10:47:06;;;;;;;7.93;3.30;;;;;;;14.91;62.38;98760.69;5070970;28;20052;-76
2022/03/15 10:49:47;;;;;;;7.45;2.92;;;;;;;14.82;58.38;98763.38;5070721;28;20123;-79
2022/03/15 10:52:28;;;;;;;7.63;2.88;;;;;;;15.27;60.80;98760.47;5072289;28;20245;-78
2022/03/15 10:54:54;;;;;;;5.05;2.83;;;;;;;14.07;59.65;98754.44;5071006;28;20048;-78
2022/03/15 10:57:21;;;;;;;6.13;2.85;;;;;;;13.71;61.44;98747.13;5067952;28;20056;-78
2022/03/15 10:59:47;;;;;;;8.35;3.20;;;;;;;13.93;66.16;98732.72;5067868;28;20137;-79
2022/03/15 11:02:14;;;;;;;6.20;2.92;;;;;;;14.12;64.37;98729.78;5086145;28;20469;-77
2022/03/15 11:04:46;;;;;;;6.88;3.15;;;;;;;13.84;65.87;98725.59;5083838;28;20140;-79
2022/03/15 11:07:14;;;;;;;7.80;3.60;;;;;;;14.30;65.63;98735.03;5083251;28;20500;-76
2022/03/15 11:09:41;;;;;;;5.57;2.55;;;;;;;14.66;59.52;98721.28;5087591;28;20557;-78
2022/03/15 11:12:09;;;;;;;5.25;3.25;;;;;;;14.81;61.61;98714.63;5093016;28;20298;-78
2022/03/15 11:14:45;;;;;;;6.88;3.28;;;;;;;14.82;63.56;98721.69;5089777;28;20424;-77
2022/03/15 11:17:24;;;;;;;6.95;3.17;;;;;;;14.37;60.95;98718.28;5090093;28;20080;-78
2022/03/15 11:19:59;;;;;;;9.68;3.55;;;;;;;14.15;58.66;98713.66;5091818;28;20504;-79
2022/03/15 11:22:31;;;;;;;7.07;3.10;;;;;;;14.01;61.18;98720.28;5079836;28;20052;-78
2022/03/15 11:25:12;;;;;;;10.27;3.58;;;;;;;15.57;60.42;98705.81;5071219;28;20520;-77
2022/03/15 11:27:41;;;;;;;7.90;3.22;;;;;;;15.19;59.83;98698.50;5069965;28;20089;-76